Time;durP1;ratioP1;P1;durP2;ratioP2;P2;SDS_P1;SDS_P2;PMS_P1;PMS_P2;Temp;Humidity;BMP_temperature;BMP_pressure;BME280_temperature;BME280_humidity;BME280_pressure;Samples;Min_cycle;Max_cycle;Signal;HPM_P1;HPM_P2
2022/04/20 00:02:07;;;;;;;0.55;0.20;;;;;;;21.28;59.88;102613.22;5053206;28;20059;-60
2022/04/20 00:04:33;;;;;;;0.40;0.22;;;;;;;21.31;58.74;102621.13;5053220;28;20024;-60
2022/04/20 00:06:58;;;;;;;0.73;0.15;;;;;;;21.29;59.00;102616.81;5053508;28;20031;-61
2022/04/20 00:09:23;;;;;;;0.75;0.20;;;;;;;21.28;58.50;102610.47;5052924;28;20017;-61
2022/04/20 00:11:49;;;;;;;0.73;0.20;;;;;;;21.29;59.49;102605.88;5053030;28;20048;-62
2022/04/20 00:14:14;;;;;;;0.20;0.20;;;;;;;21.28;59.58;102615.94;5052146;28;20020;-61
2022/04/20 00:16:39;;;;;;;0.10;0.10;;;;;;;21.27;58.42;102608.75;5052860;28;20349;-61
2022/04/20 00:19:04;;;;;;;0.52;0.20;;;;;;;21.27;58.90;102613.38;5053139;28;20074;-61
2022/04/20 00:21:30;;;;;;;0.85;0.25;;;;;;;21.25;59.41;102613.50;5052883;28;20064;-61
2022/04/20 00:23:55;;;;;;;0.30;0.10;;;;;;;21.25;58.76;102616.25;5052826;28;20025;-61
2022/04/20 00:26:21;;;;;;;1.35;0.30;;;;;;;21.25;58.89;102618.97;5052381;28;20470;-61
2022/04/20 00:28:46;;;;;;;1.60;0.20;;;;;;;21.27;58.73;102624.31;5052738;28;20025;-61
2022/04/20 00:31:11;;;;;;;0.10;0.10;;;;;;;21.25;59.13;102613.50;5052613;28;20027;-60
2022/04/20 00:33:37;;;;;;;2.08;0.30;;;;;;;21.25;58.79;102615.38;5054609;28;20036;-60
2022/04/20 00:36:03;;;;;;;0.20;0.10;;;;;;;21.25;59.43;102616.25;5051756;28;20103;-61
2022/04/20 00:38:29;;;;;;;0.80;0.30;;;;;;;21.24;59.36;102611.78;5052207;28;20027;-61
2022/04/20 00:40:55;;;;;;;1.17;0.20;;;;;;;21.22;59.02;102605.56;5052572;28;20017;-61
2022/04/20 00:43:21;;;;;;;1.27;0.20;;;;;;;21.25;58.90;102610.78;5052368;28;20553;-61
2022/04/20 00:45:49;;;;;;;0.85;0.50;;;;;;;21.22;59.04;102605.56;5052515;28;20036;-61
2022/04/20 00:48:15;;;;;;;0.73;0.30;;;;;;;21.21;59.23;102612.06;5052237;28;20017;-61
2022/04/20 00:50:42;;;;;;;0.17;0.17;;;;;;;21.22;59.26;102611.03;5052268;28;20052;-61
2022/04/20 00:53:08;;;;;;;1.08;0.35;;;;;;;21.21;59.53;102608.47;5052193;28;20090;-61
2022/04/20 00:55:33;;;;;;;0.55;0.30;;;;;;;21.21;58.79;102605.72;5052205;28;20033;-61
2022/04/20 00:57:58;;;;;;;0.38;0.10;;;;;;;21.21;59.87;102608.47;5052262;28;20116;-61
2022/04/20 01:00:27;;;;;;;0.98;0.30;;;;;;;21.20;59.93;102607.59;5051893;28;20029;-61
2022/04/20 01:02:53;;;;;;;1.27;0.73;;;;;;;21.20;59.41;102601.28;5052568;28;20558;-61
2022/04/20 01:05:19;;;;;;;0.75;0.28;;;;;;;21.18;59.79;102609.63;5052631;28;20033;-60
2022/04/20 01:07:45;;;;;;;0.15;0.15;;;;;;;21.21;59.43;102606.59;5052422;28;20052;-61
2022/04/20 01:10:10;;;;;;;0.25;0.20;;;;;;;21.18;59.20;102603.28;5052893;28;20508;-61
2022/04/20 01:12:36;;;;;;;0.43;0.15;;;;;;;21.18;59.77;102598.69;5052060;28;20519;-61
2022/04/20 01:15:02;;;;;;;0.35;0.15;;;;;;;21.19;59.37;102605.03;5052285;28;20033;-61
2022/04/20 01:17:27;;;;;;;0.30;0.20;;;;;;;21.17;59.89;102607.91;5053332;28;20033;-61
2022/04/20 01:19:53;;;;;;;0.20;0.13;;;;;;;21.16;59.54;102606.16;5052176;28;20021;-61
2022/04/20 01:22:18;;;;;;;0.47;0.15;;;;;;;21.16;59.05;102611.63;5051983;28;20375;-61
2022/04/20 01:24:43;;;;;;;0.38;0.10;;;;;;;21.14;59.04;102613.63;5052165;28;20029;-61
2022/04/20 01:27:10;;;;;;;0.38;0.22;;;;;;;21.16;59.82;102608.88;5056090;28;20406;-61
2022/04/20 01:29:36;;;;;;;0.20;0.10;;;;;;;21.15;59.26;102615.38;5055842;28;20513;-61
2022/04/20 01:32:02;;;;;;;0.30;0.10;;;;;;;21.17;59.44;102607.03;5056376;28;20056;-61
2022/04/20 01:34:27;;;;;;;0.45;0.30;;;;;;;21.15;59.39;102604.41;5055932;28;20108;-61
2022/04/20 01:36:52;;;;;;;0.93;0.25;;;;;;;21.16;59.55;102595.22;5056001;28;20021;-61
2022/04/20 01:39:18;;;;;;;0.75;0.13;;;;;;;21.16;60.34;102600.69;5055634;28;20507;-61
2022/04/20 01:41:43;;;;;;;0.38;0.10;;;;;;;21.14;59.64;102597.22;5055900;28;20380;-61
2022/04/20 01:44:09;;;;;;;0.35;0.10;;;;;;;21.14;60.19;102602.69;5055924;28;20032;-61
2022/04/20 01:46:35;;;;;;;1.40;0.20;;;;;;;21.15;60.52;102603.56;5055612;28;20126;-61
2022/04/20 01:49:01;;;;;;;0.10;0.05;;;;;;;21.13;59.54;102598.25;5055747;28;20025;-61
2022/04/20 01:54:11;;;;;;;0.20;0.10;;;;;;;21.13;59.55;102606.44;5055514;28;20131;-61
2022/04/20 01:56:36;;;;;;;0.25;0.13;;;;;;;21.14;59.59;102607.31;5055719;28;20479;-61
2022/04/20 01:59:01;;;;;;;0.65;0.32;;;;;;;21.12;59.48;102604.72;5056852;28;20021;-61
2022/04/20 02:04:11;;;;;;;0.40;0.10;;;;;;;21.12;59.71;102604.72;5055539;28;20058;-61
2022/04/20 02:06:36;;;;;;;0.45;0.28;;;;;;;21.12;60.39;102599.25;5055369;28;20119;-61
2022/04/20 02:09:02;;;;;;;0.22;0.15;;;;;;;21.10;60.21;102601.28;5055634;28;20487;-61
2022/04/20 02:11:27;;;;;;;0.38;0.20;;;;;;;21.11;59.86;102597.53;5055127;28;20483;-61
2022/04/20 02:13:52;;;;;;;0.40;0.22;;;;;;;21.12;59.69;102596.53;5055211;28;20025;-61
2022/04/20 02:16:18;;;;;;;0.20;0.20;;;;;;;21.10;60.59;102601.28;5054909;28;20361;-61
2022/04/20 02:18:43;;;;;;;0.40;0.30;;;;;;;21.11;60.24;102603.00;5055345;28;20194;-61
2022/04/20 02:21:08;;;;;;;0.10;0.10;;;;;;;21.12;59.86;102593.78;5055109;28;20107;-61
2022/04/20 02:23:33;;;;;;;0.65;0.10;;;;;;;21.10;60.50;102590.34;5054862;28;20033;-61
2022/04/20 02:25:59;;;;;;;0.65;0.20;;;;;;;21.09;60.42;102594.09;5055024;28;20045;-61
2022/04/20 02:28:24;;;;;;;0.28;0.10;;;;;;;21.09;59.94;102598.69;5054753;28;20029;-61
2022/04/20 02:30:49;;;;;;;0.30;0.10;;;;;;;21.09;60.25;102598.69;5054787;28;20017;-61
2022/04/20 02:33:15;;;;;;;0.75;0.20;;;;;;;21.08;60.81;102596.97;5054818;28;20032;-60
2022/04/20 02:35:40;;;;;;;0.32;0.10;;;;;;;21.08;60.39;102591.50;5055287;28;20044;-61
2022/04/20 02:38:09;;;;;;;0.25;0.10;;;;;;;21.08;60.49;102602.44;5054743;28;20037;-60
2022/04/20 02:40:35;;;;;;;0.17;0.17;;;;;;;21.07;60.04;102596.09;5055478;28;20087;-61
2022/04/20 02:43:00;;;;;;;0.65;0.10;;;;;;;21.09;60.42;102605.03;5054777;28;20460;-61
2022/04/20 02:45:25;;;;;;;0.20;0.10;;;;;;;21.08;60.30;102589.63;5054502;28;20021;-61
2022/04/20 02:47:50;;;;;;;0.03;0.03;;;;;;;21.07;60.69;102598.84;5054573;28;20033;-61
2022/04/20 02:50:16;;;;;;;0.20;0.10;;;;;;;21.06;60.14;102594.38;5054252;28;20024;-61
2022/04/20 02:52:41;;;;;;;0.80;0.17;;;;;;;21.06;60.83;102594.38;5054457;28;20483;-61
2022/04/20 02:55:07;;;;;;;0.20;0.10;;;;;;;21.06;60.61;102591.66;5054501;28;20451;-61
2022/04/20 02:57:32;;;;;;;0.50;0.20;;;;;;;21.07;60.26;102596.09;5054527;28;20029;-61
2022/04/20 02:59:58;;;;;;;0.03;0.00;;;;;;;21.04;60.08;102593.69;5054387;28;20032;-61
2022/04/20 03:02:23;;;;;;;1.25;0.20;;;;;;;21.03;60.27;102534.53;5054031;28;20070;-61
2022/04/20 03:04:48;;;;;;;0.50;0.28;;;;;;;21.05;61.19;102529.75;5054283;28;20067;-61
2022/04/20 03:07:14;;;;;;;0.63;0.30;;;;;;;21.06;60.34;102534.22;5054227;28;20048;-61
2022/04/20 03:09:39;;;;;;;0.35;0.10;;;;;;;21.06;60.29;102616.25;5055083;28;20066;-60
2022/04/20 03:12:05;;;;;;;0.20;0.13;;;;;;;21.06;61.06;102594.38;5056072;28;20016;-61
2022/04/20 03:14:30;;;;;;;1.95;0.20;;;;;;;21.06;60.47;102583.44;5054638;28;20406;-61
2022/04/20 03:16:55;;;;;;;0.10;0.10;;;;;;;21.05;61.27;102584.47;5054858;28;20032;-61
2022/04/20 03:19:21;;;;;;;0.82;0.28;;;;;;;21.06;60.77;102588.91;5053787;28;20103;-61
2022/04/20 03:21:47;;;;;;;0.70;0.30;;;;;;;21.05;60.97;102584.47;5053996;28;20464;-61
2022/04/20 03:24:12;;;;;;;0.20;0.10;;;;;;;21.06;61.13;102588.91;5054037;28;20036;-61
2022/04/20 03:26:39;;;;;;;0.10;0.10;;;;;;;21.04;61.58;102590.94;5053786;28;20025;-61
2022/04/20 03:29:04;;;;;;;0.50;0.20;;;;;;;21.03;61.19;102587.34;5053913;28;20025;-61
2022/04/20 03:31:30;;;;;;;0.63;0.20;;;;;;;21.03;61.52;102594.69;5053588;28;20033;-61
2022/04/20 03:33:56;;;;;;;0.40;0.22;;;;;;;21.01;60.83;102591.25;5053852;28;20024;-61
2022/04/20 03:36:21;;;;;;;0.25;0.20;;;;;;;21.01;61.32;102583.03;5053407;28;20090;-61
2022/04/20 03:38:47;;;;;;;0.45;0.20;;;;;;;21.01;61.14;102591.25;5053570;28;20060;-61
2022/04/20 03:41:12;;;;;;;0.40;0.20;;;;;;;21.02;61.03;102601.16;5053589;28;20455;-61
2022/04/20 03:43:37;;;;;;;0.20;0.10;;;;;;;20.99;61.10;102596.81;5054515;28;20027;-61
2022/04/20 03:46:02;;;;;;;0.28;0.15;;;;;;;21.00;60.86;102601.31;5053951;28;20460;-61
2022/04/20 03:48:28;;;;;;;0.20;0.00;;;;;;;20.99;61.30;102587.75;5053720;28;20025;-61
2022/04/20 03:50:53;;;;;;;0.20;0.00;;;;;;;20.97;61.70;102593.38;5053455;28;20044;-61
2022/04/20 03:53:19;;;;;;;0.45;0.10;;;;;;;20.99;61.93;102587.75;5052994;28;20131;-61
2022/04/20 03:55:44;;;;;;;1.50;0.32;;;;;;;20.99;61.37;102594.09;5053601;28;20024;-61
2022/04/20 03:58:09;;;;;;;0.45;0.22;;;;;;;20.98;61.15;102594.25;5053038;28;20027;-61
2022/04/20 04:00:35;;;;;;;0.20;0.10;;;;;;;21.00;60.76;102603.19;5053056;28;20474;-61
2022/04/20 04:03:00;;;;;;;0.40;0.20;;;;;;;21.12;60.56;102604.72;5051919;28;20055;-61
2022/04/20 04:05:25;;;;;;;0.32;0.10;;;;;;;21.24;61.20;102597.22;5053013;28;20021;-60
2022/04/20 04:07:51;;;;;;;0.30;0.13;;;;;;;21.31;60.74;102603.84;5053106;28;20400;-61
2022/04/20 04:10:16;;;;;;;0.20;0.10;;;;;;;21.39;60.71;102605.84;5053176;28;20021;-61
2022/04/20 04:12:41;;;;;;;1.08;0.30;;;;;;;21.44;59.86;102596.16;5053567;28;20036;-60
2022/04/20 04:15:07;;;;;;;1.13;0.30;;;;;;;21.48;59.48;102599.47;5053019;28;20155;-61
2022/04/20 04:17:33;;;;;;;0.22;0.10;;;;;;;21.51;60.03;102582.78;5052782;28;20033;-61
2022/04/20 04:19:59;;;;;;;0.30;0.10;;;;;;;21.55;60.24;102590.50;5052819;28;20025;-61
2022/04/20 04:22:24;;;;;;;0.57;0.10;;;;;;;21.59;59.53;102596.53;5052587;28;20021;-61
2022/04/20 04:24:49;;;;;;;0.00;0.00;;;;;;;21.61;59.71;102589.03;5052816;28;20021;-61
2022/04/20 04:27:15;;;;;;;0.20;0.10;;;;;;;21.62;58.88;102588.88;5053028;28;20046;-58
2022/04/20 04:29:40;;;;;;;0.22;0.10;;;;;;;21.65;58.67;102584.13;5057841;28;20100;-61
2022/04/20 04:32:06;;;;;;;1.00;0.30;;;;;;;21.67;59.14;102593.94;5052647;28;20029;-61
2022/04/20 04:34:32;;;;;;;0.00;0.00;;;;;;;21.67;59.78;102587.56;5052377;28;20029;-61
2022/04/20 04:36:58;;;;;;;0.22;0.10;;;;;;;21.67;59.45;102596.66;5052621;28;20104;-61
2022/04/20 04:39:24;;;;;;;0.25;0.00;;;;;;;21.70;58.83;102590.88;5051090;28;20174;-61
2022/04/20 04:41:50;;;;;;;0.05;0.00;;;;;;;21.70;59.72;102599.09;5052627;28;20029;-61
2022/04/20 04:44:19;;;;;;;0.00;0.00;;;;;;;21.73;59.03;102604.25;5052904;28;20472;-60
2022/04/20 04:49:31;;;;;;;0.40;0.10;;;;;;;21.73;58.72;102598.78;5052568;28;20487;-61
2022/04/20 04:51:57;;;;;;;0.20;0.00;;;;;;;21.76;59.12;102606.69;5052313;28;20714;-61
2022/04/20 04:54:23;;;;;;;0.00;0.00;;;;;;;21.74;59.48;102605.97;5052110;28;20032;-61
2022/04/20 04:56:48;;;;;;;0.17;0.10;;;;;;;21.77;59.56;102605.69;5052311;28;20574;-60
2022/04/20 04:59:14;;;;;;;0.20;0.05;;;;;;;21.78;59.47;102599.19;5051886;28;20021;-61
2022/04/20 05:01:39;;;;;;;0.55;0.10;;;;;;;21.78;59.26;102612.88;5052283;28;20021;-61
2022/04/20 05:04:05;;;;;;;0.20;0.08;;;;;;;21.79;58.66;102609.13;5052289;28;20024;-61
2022/04/20 05:06:31;;;;;;;0.10;0.10;;;;;;;21.80;59.14;102605.38;5052256;28;20031;-61
2022/04/20 05:08:56;;;;;;;0.10;0.08;;;;;;;21.80;58.77;102599.88;5052295;28;20028;-61
2022/04/20 05:11:21;;;;;;;0.70;0.00;;;;;;;21.82;58.94;102591.53;5052057;28;20066;-61
2022/04/20 05:13:47;;;;;;;0.30;0.15;;;;;;;21.81;59.22;102585.19;5053923;28;20055;-59
2022/04/20 05:16:12;;;;;;;0.00;0.00;;;;;;;21.83;59.21;102583.16;5052349;28;20024;-61
2022/04/20 05:18:37;;;;;;;0.20;0.10;;;;;;;21.83;59.36;102588.63;5052581;28;20075;-61
2022/04/20 05:21:03;;;;;;;0.10;0.08;;;;;;;21.84;59.41;102593.13;5052207;28;20024;-61
2022/04/20 05:23:28;;;;;;;0.40;0.08;;;;;;;21.82;58.92;102592.38;5051949;28;20111;-61
2022/04/20 05:25:53;;;;;;;0.30;0.20;;;;;;;21.86;59.24;102585.63;5052172;28;20448;-61
2022/04/20 05:28:19;;;;;;;0.30;0.05;;;;;;;21.86;58.92;102585.63;5051804;28;20025;-61
2022/04/20 05:30:44;;;;;;;0.20;0.10;;;;;;;21.83;59.17;102583.16;5052048;28;20025;-61
2022/04/20 05:33:09;;;;;;;0.10;0.03;;;;;;;21.88;59.77;102590.94;5052064;28;20096;-61
2022/04/20 05:35:35;;;;;;;0.75;0.10;;;;;;;21.87;59.03;102595.53;5051883;28;20029;-61
2022/04/20 05:43:28;;;;;;;0.17;0.10;;;;;;;21.87;59.39;102590.06;5051818;28;20109;-61
2022/04/20 05:45:53;;;;;;;0.05;0.03;;;;;;;21.88;59.01;102586.31;5051920;28;20104;-61
2022/04/20 05:48:19;;;;;;;0.15;0.00;;;;;;;21.88;59.68;102585.44;5051797;28;20104;-59
2022/04/20 05:50:44;;;;;;;0.60;0.10;;;;;;;21.89;59.07;102581.69;5055801;28;20036;-60
2022/04/20 05:53:10;;;;;;;0.50;0.10;;;;;;;21.90;58.81;102584.28;5048637;28;20369;-61
2022/04/20 05:55:35;;;;;;;3.80;2.00;;;;;;;21.97;59.78;102578.19;5048819;28;20484;-60
2022/04/20 05:58:01;;;;;;;0.85;0.85;;;;;;;21.92;60.82;102593.19;5050763;28;20451;-62
2022/04/20 06:00:27;;;;;;;6.00;3.17;;;;;;;22.04;60.52;102577.44;5051347;28;20047;-61
2022/04/20 06:02:54;;;;;;;8.88;6.55;;;;;;;22.25;61.72;102577.16;5051755;28;20025;-61
2022/04/20 06:05:20;;;;;;;6.38;5.78;;;;;;;22.29;61.94;102578.56;5048461;28;20090;-63
2022/04/20 06:07:46;;;;;;;6.13;5.32;;;;;;;22.38;62.32;102572.16;5050800;28;20020;-62
2022/04/20 06:10:11;;;;;;;5.18;4.68;;;;;;;22.46;61.10;102569.47;5051543;28;20021;-61
2022/04/20 06:12:36;;;;;;;5.55;3.83;;;;;;;22.51;61.82;102580.84;5054248;28;20057;-64
2022/04/20 06:15:02;;;;;;;3.85;3.20;;;;;;;22.35;58.38;102588.06;5054731;28;20475;-65
2022/04/20 06:17:27;;;;;;;16.25;3.85;;;;;;;22.50;60.79;102583.72;5056889;28;20305;-74
2022/04/20 06:19:53;;;;;;;4.13;2.05;;;;;;;22.24;60.09;102586.41;5052683;28;20108;-66
2022/04/20 06:22:18;;;;;;;2.08;1.58;;;;;;;22.14;60.36;102596.56;5054091;28;20043;-65
2022/04/20 06:24:43;;;;;;;2.08;1.17;;;;;;;22.11;59.84;102596.88;5054249;28;20048;-65
2022/04/20 06:27:08;;;;;;;1.65;1.23;;;;;;;22.26;61.95;102584.38;5054476;28;20040;-60
2022/04/20 06:29:35;;;;;;;3.85;1.10;;;;;;;22.23;60.01;102594.78;5058369;28;20467;-66
2022/04/20 06:32:01;;;;;;;5.75;0.90;;;;;;;22.40;59.62;102592.03;5052674;28;20025;-63
2022/04/20 06:34:26;;;;;;;1.17;0.77;;;;;;;23.08;58.33;102586.81;5051675;28;20032;-71
2022/04/20 06:36:52;;;;;;;4.28;3.35;;;;;;;23.36;54.99;102586.66;5051565;28;20140;-70
2022/04/20 06:39:17;;;;;;;3.53;2.47;;;;;;;23.35;55.35;102583.06;5051065;28;20040;-71
2022/04/20 06:41:42;;;;;;;2.28;1.85;;;;;;;23.37;54.58;102585.63;5050092;28;20021;-72
2022/04/20 06:44:08;;;;;;;1.90;1.45;;;;;;;23.40;54.77;102586.16;5046148;28;20422;-71
2022/04/20 06:46:33;;;;;;;2.67;1.17;;;;;;;23.42;55.05;102588.75;5052449;28;20033;-72
2022/04/20 06:48:58;;;;;;;3.05;1.00;;;;;;;23.41;51.84;102587.03;5052080;28;20964;-70
2022/04/20 06:51:24;;;;;;;0.93;0.73;;;;;;;23.42;53.70;102583.25;5049713;28;20029;-71
2022/04/20 06:59:17;;;;;;;1.65;0.32;;;;;;;23.57;53.21;102584.41;5048604;28;20036;-70
2022/04/20 07:01:42;;;;;;;1.05;0.30;;;;;;;23.53;51.32;102591.22;5057962;28;20024;-68
2022/04/20 07:04:07;;;;;;;0.55;0.50;;;;;;;23.69;51.76;102582.22;5051342;28;20064;-68
2022/04/20 07:06:33;;;;;;;0.30;0.30;;;;;;;23.79;53.48;102585.69;5050748;28;20028;-70
2022/04/20 07:08:58;;;;;;;0.40;0.30;;;;;;;23.80;53.63;102581.91;5048760;28;20024;-70
2022/04/20 07:11:28;;;;;;;0.65;0.25;;;;;;;23.76;53.04;102587.91;5057744;28;20409;-70
2022/04/20 07:13:53;;;;;;;0.47;0.20;;;;;;;23.76;52.85;102591.50;5051229;28;20063;-70
2022/04/20 07:16:18;;;;;;;0.30;0.30;;;;;;;23.77;51.99;102586.88;5051866;28;20048;-70
2022/04/20 07:18:44;;;;;;;0.32;0.32;;;;;;;23.77;51.03;102597.84;5050941;28;20028;-70
2022/04/20 07:21:09;;;;;;;0.95;0.20;;;;;;;23.77;51.29;102592.38;5052606;28;20111;-69
2022/04/20 07:23:35;;;;;;;0.45;0.25;;;;;;;23.79;50.65;102590.31;5052554;28;20470;-72
2022/04/20 07:26:00;;;;;;;1.35;0.30;;;;;;;23.77;50.68;102598.72;5052398;28;20086;-68
2022/04/20 07:28:25;;;;;;;0.90;0.10;;;;;;;23.76;50.09;102598.88;5056496;28;20535;-69
2022/04/20 07:30:50;;;;;;;1.58;0.32;;;;;;;23.83;52.05;102602.69;5051164;28;20017;-68
2022/04/20 07:33:16;;;;;;;0.70;0.30;;;;;;;23.82;50.57;102606.44;5052414;28;20033;-70
2022/04/20 07:35:45;;;;;;;6.75;0.90;;;;;;;23.79;52.27;102602.16;5051289;28;20028;-73
2022/04/20 07:38:12;;;;;;;2.50;0.50;;;;;;;23.84;52.75;102612.63;5052223;28;20025;-69
2022/04/20 07:40:38;;;;;;;2.10;0.28;;;;;;;23.80;50.72;102605.75;5053004;28;20029;-70
2022/04/20 07:43:03;;;;;;;0.57;0.40;;;;;;;23.74;49.55;102609.19;5057979;28;20095;-70
2022/04/20 07:45:29;;;;;;;0.90;0.40;;;;;;;23.72;50.03;102601.13;5056687;28;20021;-70
2022/04/20 07:47:55;;;;;;;0.60;0.20;;;;;;;23.76;50.38;102607.13;5051596;28;20052;-69
2022/04/20 07:50:25;;;;;;;1.48;0.20;;;;;;;23.79;50.90;102612.28;5053391;28;20027;-70
2022/04/20 07:52:56;;;;;;;0.45;0.30;;;;;;;23.76;50.40;102612.63;5053521;28;20045;-71
2022/04/20 07:55:24;;;;;;;0.45;0.30;;;;;;;23.79;52.05;102601.28;5053505;28;20411;-70
2022/04/20 07:57:51;;;;;;;0.10;0.00;;;;;;;23.80;49.00;102603.88;5053459;28;20025;-70
2022/04/20 08:00:18;;;;;;;0.28;0.17;;;;;;;23.81;49.97;102615.72;5053902;28;20025;-70
2022/04/20 08:02:44;;;;;;;0.70;0.20;;;;;;;23.79;50.53;102623.28;5053782;28;20029;-71
2022/04/20 08:05:11;;;;;;;0.52;0.20;;;;;;;23.83;50.67;102608.16;5053555;28;20017;-70
2022/04/20 08:07:36;;;;;;;0.60;0.20;;;;;;;23.84;50.63;102609.88;5061746;28;20036;-71
2022/04/20 08:10:06;;;;;;;0.47;0.10;;;;;;;23.80;49.71;102614.00;5053267;28;20025;-70
2022/04/20 08:12:39;;;;;;;0.98;0.10;;;;;;;23.84;50.48;102618.13;5051878;28;20448;-70
2022/04/20 08:15:05;;;;;;;0.68;0.10;;;;;;;23.79;48.47;102610.41;5053354;28;20047;-71
2022/04/20 08:17:31;;;;;;;0.40;0.20;;;;;;;23.83;49.78;102613.66;5051896;28;20028;-69
2022/04/20 08:19:56;;;;;;;0.28;0.10;;;;;;;23.82;49.98;102617.44;5051840;28;20373;-71
2022/04/20 08:22:22;;;;;;;0.50;0.10;;;;;;;23.84;50.19;102609.88;5052696;28;20044;-71
2022/04/20 08:24:48;;;;;;;0.35;0.10;;;;;;;23.86;49.86;102596.88;5052869;28;20044;-71
2022/04/20 08:27:14;;;;;;;0.25;0.10;;;;;;;23.83;47.89;102602.69;5052652;28;20047;-71
2022/04/20 08:29:40;;;;;;;0.85;0.15;;;;;;;23.87;49.83;102606.84;5052565;28;20017;-71
2022/04/20 08:32:05;;;;;;;0.30;0.10;;;;;;;23.87;50.08;102606.84;5052812;28;20524;-71
2022/04/20 08:34:31;;;;;;;0.20;0.20;;;;;;;23.83;49.61;102606.28;5058878;28;20075;-70
2022/04/20 08:36:56;;;;;;;0.50;0.10;;;;;;;23.83;47.82;102608.16;5052817;28;20060;-71
2022/04/20 08:39:21;;;;;;;0.60;0.08;;;;;;;23.87;48.83;102615.09;5051065;28;20108;-71
2022/04/20 08:41:51;;;;;;;0.15;0.03;;;;;;;23.86;49.12;102603.22;5051517;28;20400;-70
2022/04/20 08:44:27;;;;;;;0.17;0.10;;;;;;;23.85;48.26;102611.59;5052638;28;20036;-71
2022/04/20 08:46:55;;;;;;;1.65;0.10;;;;;;;23.83;47.34;102617.28;5052854;28;20029;-71
2022/04/20 08:49:20;;;;;;;0.47;0.00;;;;;;;23.89;47.75;102610.28;5052611;28;20363;-71
2022/04/20 08:54:33;;;;;;;0.08;0.08;;;;;;;23.89;50.03;102621.25;5052318;28;20032;-71
2022/04/20 08:57:18;;;;;;;0.88;0.10;;;;;;;23.91;49.54;102616.47;5052297;28;20032;-71
2022/04/20 08:59:45;;;;;;;0.13;0.08;;;;;;;23.89;49.19;102610.28;5032691;28;20021;-71
2022/04/20 09:02:13;;;;;;;1.95;0.60;;;;;;;23.86;49.09;102607.88;5032329;28;20030;-70
2022/04/20 09:04:38;;;;;;;0.60;0.20;;;;;;;23.93;46.83;102608.91;5032690;28;20036;-71
2022/04/20 09:07:07;;;;;;;0.20;0.10;;;;;;;23.90;48.18;102612.00;5036229;28;20021;-69
2022/04/20 09:09:33;;;;;;;0.22;0.10;;;;;;;23.95;47.96;102609.59;5048369;28;20033;-71
2022/04/20 09:11:59;;;;;;;0.10;0.10;;;;;;;23.97;49.28;102611.16;5032264;28;20028;-71
2022/04/20 09:14:25;;;;;;;0.68;0.10;;;;;;;23.92;48.40;102612.69;5031976;28;20480;-71
2022/04/20 09:16:55;;;;;;;0.30;0.20;;;;;;;23.91;48.45;102608.22;5030933;28;20310;-71
2022/04/20 09:19:27;;;;;;;0.38;0.00;;;;;;;23.96;48.67;102605.81;5031687;28;20136;-70
2022/04/20 09:21:53;;;;;;;0.00;0.00;;;;;;;23.92;50.74;102608.06;5069874;28;21085;-68
2022/04/20 09:24:18;;;;;;;1.02;0.10;;;;;;;23.98;49.87;102601.03;5059963;28;20394;-70
2022/04/20 09:26:55;;;;;;;0.43;0.13;;;;;;;23.94;45.48;102603.25;5047536;28;20108;-71
2022/04/20 09:29:21;;;;;;;0.28;0.20;;;;;;;23.95;47.86;102601.34;5032107;28;20045;-71
2022/04/20 09:31:51;;;;;;;0.10;0.00;;;;;;;23.99;48.15;102603.59;5047502;28;20021;-71
2022/04/20 09:34:28;;;;;;;1.42;0.10;;;;;;;23.92;47.60;102597.06;5031999;28;20033;-71
2022/04/20 09:36:55;;;;;;;0.20;0.10;;;;;;;23.98;46.81;102601.03;5038472;28;20036;-71
2022/04/20 09:39:21;;;;;;;0.28;0.08;;;;;;;23.98;48.15;102590.88;5048634;28;20068;-70
2022/04/20 09:42:00;;;;;;;0.65;0.20;;;;;;;23.97;49.51;102589.16;5032054;28;20101;-71
2022/04/20 09:44:27;;;;;;;0.22;0.10;;;;;;;23.98;49.05;102587.28;5047078;28;20064;-71
2022/04/20 09:49:57;;;;;;;0.10;0.00;;;;;;;24.02;48.01;102591.44;5035727;28;20104;-70
2022/04/20 09:52:24;;;;;;;1.55;0.10;;;;;;;23.99;48.22;102594.50;5053818;28;20064;-70
2022/04/20 09:54:56;;;;;;;0.10;0.00;;;;;;;23.97;46.68;102593.81;5035728;28;20053;-71
2022/04/20 09:57:21;;;;;;;0.20;0.00;;;;;;;24.01;48.26;102590.56;5037665;28;20028;-70
2022/04/20 10:00:12;;;;;;;0.00;0.00;;;;;;;23.98;48.38;102590.03;5055536;28;20020;-71
2022/04/20 10:02:47;;;;;;;0.30;0.10;;;;;;;24.00;47.30;102594.31;5055428;28;20484;-71
2022/04/20 10:05:15;;;;;;;1.17;0.17;;;;;;;23.96;45.42;102592.09;5055399;28;20029;-70
2022/04/20 10:07:40;;;;;;;0.32;0.10;;;;;;;24.00;46.91;102587.97;5071631;28;20013;-68
2022/04/20 10:10:07;;;;;;;0.00;0.00;;;;;;;24.04;49.27;102589.38;5068107;28;20037;-70
2022/04/20 10:12:35;;;;;;;0.20;0.00;;;;;;;23.99;48.12;102591.75;5055108;28;20025;-70
2022/04/20 10:17:50;;;;;;;0.13;0.00;;;;;;;23.98;45.63;102590.88;5055546;28;20403;-73
2022/04/20 10:20:16;;;;;;;0.77;0.10;;;;;;;24.00;49.31;102585.22;5055184;28;20464;-69
2022/04/20 10:22:43;;;;;;;0.70;0.10;;;;;;;23.99;49.07;102587.13;5055226;28;20027;-70
2022/04/20 10:25:11;;;;;;;0.52;0.10;;;;;;;24.06;46.64;102595.56;5055122;28;20032;-70
2022/04/20 10:28:03;;;;;;;0.20;0.15;;;;;;;23.99;45.58;102595.34;5054829;28;20031;-71
2022/04/20 10:31:22;;;;;;;0.20;0.00;;;;;;;24.01;47.79;102592.44;5053373;28;20044;-71
2022/04/20 10:33:48;;;;;;;0.32;0.20;;;;;;;24.01;46.87;102589.69;4993183;28;20068;-70
2022/04/20 10:36:26;;;;;;;1.30;0.00;;;;;;;23.99;48.05;102575.25;5000487;28;20050;-71
2022/04/20 10:39:22;;;;;;;0.05;0.00;;;;;;;24.03;46.98;102582.16;4976799;28;20037;-71
2022/04/20 10:42:09;;;;;;;0.17;0.00;;;;;;;24.05;47.18;102582.84;4993077;28;20061;-71
2022/04/20 10:45:01;;;;;;;0.20;0.00;;;;;;;24.02;48.07;102580.44;4992921;28;20497;-70
2022/04/20 10:47:38;;;;;;;0.17;0.00;;;;;;;23.98;46.73;102579.03;4976504;28;20125;-70
2022/04/20 10:50:14;;;;;;;0.00;0.00;;;;;;;24.01;45.76;102579.56;4999167;28;20045;-66
2022/04/20 10:52:41;;;;;;;0.65;0.10;;;;;;;24.00;48.27;102577.84;5007897;28;20050;-67
2022/04/20 10:55:11;;;;;;;0.98;0.10;;;;;;;24.03;47.13;102587.66;4978867;28;20030;-71
2022/04/20 10:57:42;;;;;;;0.15;0.00;;;;;;;24.04;47.69;102575.66;4992204;28;20173;-71
2022/04/20 11:00:16;;;;;;;0.10;0.08;;;;;;;24.07;48.76;102569.81;4992702;28;20516;-69
2022/04/20 11:03:12;;;;;;;0.10;0.00;;;;;;;24.03;48.58;102568.44;5006419;28;20230;-70
2022/04/20 11:05:55;;;;;;;0.90;0.30;;;;;;;24.06;48.84;102581.81;4991512;28;20037;-70
2022/04/20 11:08:24;;;;;;;1.02;0.10;;;;;;;24.07;47.71;102567.06;5037624;28;20079;-70
2022/04/20 11:18:38;;;;;;;0.20;0.00;;;;;;;24.05;46.20;102571.88;5054504;28;20020;-71
2022/04/20 11:19:19;;;;;;;0.30;0.10;;;;;;;24.05;47.69;102563.63;5054198;28;20032;-70
2022/04/20 11:22:00;;;;;;;0.00;0.00;;;;;;;24.03;46.10;102568.44;5054148;28;20372;-70
2022/04/20 11:24:29;;;;;;;0.00;0.00;;;;;;;24.00;47.21;102560.50;5054136;28;20075;-70
2022/04/20 11:26:55;;;;;;;0.40;0.10;;;;;;;24.08;47.98;102562.41;5053968;28;20060;-70
2022/04/20 11:29:25;;;;;;;0.32;0.10;;;;;;;24.05;46.79;102558.13;5064961;28;20016;-69
2022/04/20 11:31:59;;;;;;;0.03;0.00;;;;;;;24.08;47.80;102551.44;5054198;28;20440;-70
2022/04/20 11:34:28;;;;;;;0.22;0.00;;;;;;;23.99;46.09;102556.88;5052243;28;20021;-70
2022/04/20 11:36:56;;;;;;;0.10;0.10;;;;;;;24.02;46.78;102552.97;5053773;28;20033;-70
2022/04/20 11:39:23;;;;;;;0.52;0.13;;;;;;;24.04;46.95;102550.91;5053732;28;20029;-70
2022/04/20 11:41:51;;;;;;;0.28;0.22;;;;;;;23.98;46.42;102554.31;5053628;28;20029;-70
2022/04/20 11:44:27;;;;;;;0.57;0.10;;;;;;;24.06;46.32;102559.84;5052111;28;20026;-70
2022/04/20 11:46:54;;;;;;;0.70;0.10;;;;;;;24.08;49.55;102557.78;5053564;28;20051;-70
2022/04/20 11:49:20;;;;;;;0.00;0.00;;;;;;;24.02;45.26;102566.72;5053352;28;20476;-70
2022/04/20 11:51:53;;;;;;;0.00;0.00;;;;;;;23.96;47.28;102551.75;5053298;28;20384;-70
2022/04/20 11:54:20;;;;;;;0.20;0.00;;;;;;;24.01;46.26;102545.72;5054657;28;20025;-67
2022/04/20 11:56:45;;;;;;;0.73;0.10;;;;;;;24.02;47.46;102536.50;5062291;28;20025;-70
2022/04/20 11:59:10;;;;;;;0.20;0.10;;;;;;;24.13;47.22;102544.41;5053162;28;20363;-70